Time;durP1;ratioP1;P1;durP2;ratioP2;P2;SDS_P1;SDS_P2;PMS_P1;PMS_P2;Temp;Humidity;BMP_temperature;BMP_pressure;BME280_temperature;BME280_humidity;BME280_pressure;Samples;Min_cycle;Max_cycle;Signal;HPM_P1;HPM_P2
2022/07/31 00:01:45;;;;;;;6.20;2.60;;;15.40;93.10;;;;;;5119047;28;20111;-65
2022/07/31 00:04:13;;;;;;;4.78;2.35;;;15.30;93.00;;;;;;5111831;28;20016;-66
2022/07/31 00:06:40;;;;;;;4.78;2.60;;;15.30;93.40;;;;;;5114495;28;20081;-66
2022/07/31 00:09:05;;;;;;;8.80;2.38;;;15.30;93.60;;;;;;5118645;28;20024;-67
2022/07/31 00:11:31;;;;;;;5.95;2.50;;;15.40;92.80;;;;;;5118189;27;20038;-67
2022/07/31 00:13:56;;;;;;;7.32;2.30;;;15.40;92.70;;;;;;5108542;28;20024;-66
2022/07/31 00:16:22;;;;;;;5.57;2.35;;;15.40;92.50;;;;;;5111297;28;20423;-66
2022/07/31 00:18:48;;;;;;;5.78;2.10;;;15.40;92.70;;;;;;5113529;28;20028;-66
2022/07/31 00:21:14;;;;;;;7.03;2.50;;;15.50;91.50;;;;;;5118455;28;20016;-67
2022/07/31 00:23:42;;;;;;;5.32;2.50;;;15.50;92.20;;;;;;5119282;28;20058;-66
2022/07/31 00:26:08;;;;;;;4.38;2.20;;;15.40;92.90;;;;;;5115409;28;20028;-66
2022/07/31 00:28:35;;;;;;;5.30;2.28;;;15.30;93.30;;;;;;5118676;28;20034;-66
2022/07/31 00:31:00;;;;;;;7.28;2.20;;;15.30;93.30;;;;;;5118414;28;20031;-66
2022/07/31 00:33:28;;;;;;;8.13;2.58;;;15.30;92.80;;;;;;5103725;28;20032;-67
2022/07/31 00:35:54;;;;;;;4.13;2.25;;;15.20;93.10;;;;;;5116933;28;20425;-67
2022/07/31 00:38:19;;;;;;;5.47;2.40;;;15.30;93.00;;;;;;5119110;28;20098;-66
2022/07/31 00:40:47;;;;;;;3.90;1.92;;;15.30;92.60;;;;;;5116989;28;20034;-65
2022/07/31 00:43:17;;;;;;;5.00;2.33;;;15.30;92.60;;;;;;5114061;28;20089;-66
2022/07/31 00:45:43;;;;;;;4.18;2.15;;;15.40;92.10;;;;;;5112124;27;20020;-67
2022/07/31 00:48:08;;;;;;;4.88;2.33;;;15.50;91.70;;;;;;5118820;28;20045;-67
2022/07/31 00:50:35;;;;;;;4.28;2.15;;;15.50;91.60;;;;;;5117911;28;20031;-67
2022/07/31 00:53:01;;;;;;;7.43;2.33;;;15.50;91.80;;;;;;5118762;28;20309;-67
2022/07/31 00:55:26;;;;;;;5.05;2.00;;;15.40;92.00;;;;;;5116941;28;20027;-66
2022/07/31 00:57:52;;;;;;;4.25;2.15;;;15.40;92.50;;;;;;5116592;27;20375;-66
2022/07/31 01:00:18;;;;;;;5.97;2.42;;;15.30;92.50;;;;;;5117734;28;20076;-67
2022/07/31 01:02:43;;;;;;;6.07;2.42;;;15.20;93.00;;;;;;5117772;28;20408;-67
2022/07/31 01:05:09;;;;;;;4.80;2.40;;;15.20;93.30;;;;;;5117388;28;20043;-66
2022/07/31 01:07:37;;;;;;;4.85;2.13;;;15.10;93.60;;;;;;5117344;28;20043;-67
2022/07/31 01:10:10;;;;;;;4.93;2.10;;;15.10;93.50;;;;;;5115683;28;20027;-65
2022/07/31 01:12:46;;;;;;;4.20;2.20;;;15.10;93.70;;;;;;5106963;28;20043;-67
2022/07/31 01:15:14;;;;;;;7.07;2.60;;;15.10;93.80;;;;;;5116298;28;20309;-66
2022/07/31 01:17:44;;;;;;;5.72;2.25;;;15.00;93.80;;;;;;5116943;28;20031;-68
2022/07/31 01:20:10;;;;;;;5.25;2.47;;;15.00;93.70;;;;;;5098386;28;20027;-67
2022/07/31 01:22:51;;;;;;;5.07;2.20;;;15.10;93.40;;;;;;5118328;28;20475;-67
2022/07/31 01:25:39;;;;;;;5.40;2.35;;;15.00;93.90;;;;;;5114019;28;20031;-67
2022/07/31 01:28:52;;;;;;;5.85;2.20;;;15.00;93.60;;;;;;5116905;28;20111;-67
2022/07/31 01:31:40;;;;;;;3.95;2.30;;;14.90;93.60;;;;;;5088286;28;20082;-68
2022/07/31 01:34:41;;;;;;;4.53;2.30;;;14.90;93.70;;;;;;5116932;28;20092;-67
2022/07/31 01:37:22;;;;;;;5.45;2.00;;;14.90;92.90;;;;;;5099206;28;20154;-67
2022/07/31 01:40:00;;;;;;;4.65;2.28;;;15.00;93.20;;;;;;5113189;28;20024;-67
2022/07/31 01:42:28;;;;;;;3.80;2.22;;;15.00;93.60;;;;;;5117030;28;20026;-67
2022/07/31 01:44:58;;;;;;;6.20;2.88;;;14.80;94.30;;;;;;5117715;28;20077;-67
2022/07/31 01:47:26;;;;;;;6.68;3.17;;;14.60;94.40;;;;;;5115680;27;20062;-67
2022/07/31 01:49:54;;;;;;;4.65;2.42;;;14.60;94.70;;;;;;5117367;28;20050;-67
2022/07/31 01:52:23;;;;;;;4.50;2.42;;;14.50;94.90;;;;;;5116550;27;20027;-67
2022/07/31 01:54:50;;;;;;;4.68;2.50;;;14.30;95.30;;;;;;5112426;28;20027;-67
2022/07/31 01:57:17;;;;;;;4.22;2.50;;;14.20;95.70;;;;;;5114576;28;20070;-67
2022/07/31 01:59:46;;;;;;;5.95;2.67;;;14.20;95.80;;;;;;5116997;27;20426;-67
2022/07/31 02:02:17;;;;;;;4.53;2.20;;;14.10;96.00;;;;;;5115030;28;20325;-66
2022/07/31 02:04:45;;;;;;;7.38;2.60;;;14.20;95.90;;;;;;5108912;27;20401;-66
2022/07/31 02:07:13;;;;;;;5.25;2.92;;;14.20;96.00;;;;;;5110570;28;20039;-66
2022/07/31 02:09:46;;;;;;;5.07;2.65;;;14.20;96.00;;;;;;5110819;28;20030;-66
2022/07/31 02:12:15;;;;;;;5.13;2.58;;;14.20;95.90;;;;;;5111924;28;20078;-66
2022/07/31 02:14:44;;;;;;;7.13;4.00;;;14.20;96.00;;;;;;5109677;28;20176;-66
2022/07/31 02:17:12;;;;;;;3.90;2.40;;;14.00;96.20;;;;;;5114269;28;20032;-67
2022/07/31 02:19:40;;;;;;;4.50;2.28;;;13.90;96.30;;;;;;5113623;28;20079;-67
2022/07/31 02:22:06;;;;;;;4.97;2.60;;;13.90;96.60;;;;;;5114998;28;20027;-68
2022/07/31 02:24:32;;;;;;;4.10;2.50;;;13.80;96.50;;;;;;5104853;28;20405;-67
2022/07/31 02:26:59;;;;;;;6.10;2.60;;;13.80;96.60;;;;;;5105905;28;20037;-68
2022/07/31 02:29:27;;;;;;;7.55;3.00;;;13.80;96.70;;;;;;5115570;28;20035;-67
2022/07/31 02:31:55;;;;;;;6.05;2.83;;;13.80;96.70;;;;;;5113717;28;20447;-67
2022/07/31 02:34:23;;;;;;;4.95;2.95;;;13.70;96.80;;;;;;5115966;28;20034;-67
2022/07/31 02:36:51;;;;;;;5.40;2.72;;;13.70;96.70;;;;;;5114781;28;20316;-67
2022/07/31 02:39:18;;;;;;;9.70;3.10;;;13.70;96.80;;;;;;5111204;28;20081;-66
2022/07/31 02:41:44;;;;;;;6.03;2.85;;;13.70;96.80;;;;;;5112757;28;20068;-67
2022/07/31 02:44:14;;;;;;;4.85;2.88;;;13.70;96.80;;;;;;5114618;28;20028;-67
2022/07/31 02:46:43;;;;;;;4.90;2.58;;;13.70;96.80;;;;;;5114970;28;20317;-67
2022/07/31 02:49:12;;;;;;;4.43;2.85;;;13.60;96.80;;;;;;5115019;28;20039;-66
2022/07/31 02:51:39;;;;;;;5.22;2.85;;;13.50;96.90;;;;;;5111898;28;20035;-67
2022/07/31 02:54:05;;;;;;;5.18;2.90;;;13.60;96.90;;;;;;5113750;28;20451;-67
2022/07/31 02:56:32;;;;;;;5.65;2.72;;;13.50;97.10;;;;;;5112621;28;20063;-66
2022/07/31 02:58:58;;;;;;;6.22;3.10;;;13.60;97.00;;;;;;5115331;28;20023;-67
2022/07/31 03:01:23;;;;;;;5.78;2.40;;;13.60;96.90;;;;;;5115352;28;20030;-67
2022/07/31 03:03:49;;;;;;;4.65;2.70;;;13.60;96.70;;;;;;5114441;28;20418;-68
2022/07/31 03:06:16;;;;;;;4.82;3.00;;;13.60;96.90;;;;;;5115671;28;20039;-67
2022/07/31 03:08:42;;;;;;;5.13;2.47;;;13.50;96.80;;;;;;5113247;28;20027;-67
2022/07/31 03:11:07;;;;;;;5.30;2.72;;;13.50;97.00;;;;;;5114000;28;20028;-67
2022/07/31 03:13:35;;;;;;;6.03;2.97;;;13.50;97.00;;;;;;5110288;28;20023;-66
2022/07/31 03:16:03;;;;;;;6.03;3.13;;;13.40;97.00;;;;;;5113399;28;20027;-66
2022/07/31 03:18:30;;;;;;;7.63;3.17;;;13.40;97.00;;;;;;5116111;28;20072;-67
2022/07/31 03:20:56;;;;;;;5.18;2.70;;;13.50;97.10;;;;;;5115395;28;20020;-67
2022/07/31 03:23:25;;;;;;;5.53;2.92;;;13.60;97.20;;;;;;5107698;28;20039;-66
2022/07/31 03:25:52;;;;;;;10.57;3.28;;;13.70;97.10;;;;;;5109683;28;20047;-67
2022/07/31 03:28:19;;;;;;;4.28;2.85;;;13.80;97.00;;;;;;5112918;28;20023;-67
2022/07/31 03:30:46;;;;;;;4.32;2.70;;;13.90;97.00;;;;;;5115432;28;20023;-67
2022/07/31 03:33:12;;;;;;;4.40;2.65;;;13.80;96.80;;;;;;5115398;28;20012;-67
2022/07/31 03:35:37;;;;;;;6.45;2.78;;;13.80;96.90;;;;;;5114504;28;20084;-67
2022/07/31 03:38:04;;;;;;;5.63;3.20;;;13.80;96.80;;;;;;5114545;28;20047;-67
2022/07/31 03:40:30;;;;;;;5.22;3.00;;;13.80;96.90;;;;;;5113545;28;20030;-67
2022/07/31 03:42:57;;;;;;;6.32;2.88;;;13.80;96.80;;;;;;5114274;28;20024;-67
2022/07/31 03:45:24;;;;;;;5.35;3.13;;;13.70;96.80;;;;;;5108493;28;20019;-67
2022/07/31 03:47:50;;;;;;;5.05;3.30;;;13.70;97.00;;;;;;5107114;28;20030;-66
2022/07/31 03:50:16;;;;;;;4.65;3.03;;;13.70;96.90;;;;;;5112072;28;20111;-66
2022/07/31 03:52:45;;;;;;;5.43;2.85;;;13.70;97.00;;;;;;5110917;28;20059;-67
2022/07/31 03:55:11;;;;;;;6.47;2.90;;;13.70;97.00;;;;;;5112262;28;20076;-67
2022/07/31 03:57:37;;;;;;;5.85;2.75;;;13.80;96.80;;;;;;5113281;28;20035;-67
2022/07/31 04:00:10;;;;;;;7.97;3.05;;;13.70;96.80;;;;;;5115961;28;20047;-67
2022/07/31 04:02:36;;;;;;;6.72;2.85;;;13.60;96.90;;;;;;5115131;28;20035;-66
2022/07/31 04:05:02;;;;;;;6.18;2.85;;;13.70;97.00;;;;;;5115237;28;21538;-67
2022/07/31 04:07:27;;;;;;;4.93;2.97;;;13.70;97.10;;;;;;5114308;28;20020;-67
2022/07/31 04:09:53;;;;;;;7.40;3.17;;;13.60;97.10;;;;;;5110675;28;20116;-67
2022/07/31 04:12:19;;;;;;;6.53;3.10;;;13.60;97.20;;;;;;5114843;28;20019;-67
2022/07/31 04:14:45;;;;;;;4.55;2.88;;;13.50;97.00;;;;;;5116406;28;20432;-66
2022/07/31 04:17:11;;;;;;;4.10;2.90;;;13.50;97.20;;;;;;5116584;28;20377;-67
2022/07/31 04:19:37;;;;;;;5.53;3.10;;;13.60;97.20;;;;;;5112570;28;20118;-67
2022/07/31 04:22:03;;;;;;;6.90;3.00;;;13.60;97.00;;;;;;5118231;28;20094;-67
2022/07/31 04:24:28;;;;;;;4.10;2.78;;;13.60;97.20;;;;;;5116214;27;20107;-66
2022/07/31 04:26:54;;;;;;;4.18;2.67;;;13.70;97.10;;;;;;5117225;28;20514;-67
2022/07/31 04:29:20;;;;;;;9.35;3.70;;;13.80;97.00;;;;;;5109341;27;20095;-67
2022/07/31 04:31:46;;;;;;;5.45;2.70;;;13.90;97.00;;;;;;5116898;28;20114;-67
2022/07/31 04:34:11;;;;;;;7.40;2.92;;;13.90;97.10;;;;;;5113808;28;20023;-66
2022/07/31 04:36:37;;;;;;;5.65;2.70;;;14.10;96.70;;;;;;5117279;28;20023;-67
2022/07/31 04:39:03;;;;;;;4.10;2.45;;;14.20;96.80;;;;;;5116629;28;20023;-66
2022/07/31 04:41:29;;;;;;;5.30;2.90;;;14.20;96.70;;;;;;5118143;28;20027;-67
2022/07/31 04:43:56;;;;;;;6.90;3.05;;;14.30;96.60;;;;;;5116779;28;20016;-67
2022/07/31 04:46:23;;;;;;;5.65;2.60;;;14.30;96.80;;;;;;5112958;28;20039;-67
2022/07/31 04:48:48;;;;;;;6.55;2.70;;;14.30;96.90;;;;;;5114586;28;20305;-67
2022/07/31 04:51:32;;;;;;;5.25;2.80;;;14.30;96.90;;;;;;5115268;28;20034;-67
2022/07/31 04:53:58;;;;;;;5.75;2.70;;;14.40;96.90;;;;;;5116092;28;20460;-67
2022/07/31 04:56:40;;;;;;;4.90;2.50;;;14.50;96.80;;;;;;5116798;28;20051;-66
2022/07/31 04:59:14;;;;;;;5.65;3.00;;;14.80;96.40;;;;;;5117518;28;20102;-66
2022/07/31 05:01:42;;;;;;;5.78;2.33;;;15.10;96.10;;;;;;5115744;28;20114;-66
2022/07/31 05:04:08;;;;;;;5.22;2.72;;;15.30;95.70;;;;;;5116391;28;20459;-66
2022/07/31 05:06:45;;;;;;;4.00;2.50;;;15.50;95.30;;;;;;5115901;28;20450;-66
2022/07/31 05:09:13;;;;;;;7.25;2.58;;;15.70;95.00;;;;;;5115885;28;20043;-67
2022/07/31 05:11:39;;;;;;;4.25;2.40;;;15.80;95.00;;;;;;5117022;28;20038;-67
2022/07/31 05:14:06;;;;;;;6.18;2.38;;;15.90;94.50;;;;;;5117544;28;20028;-68
2022/07/31 05:16:33;;;;;;;4.03;2.45;;;16.10;94.60;;;;;;5117098;28;20111;-67
2022/07/31 05:18:59;;;;;;;6.18;2.40;;;16.30;94.00;;;;;;5116377;28;20439;-68
2022/07/31 05:21:31;;;;;;;4.93;2.58;;;16.50;94.60;;;;;;5114759;28;20032;-66
2022/07/31 05:23:58;;;;;;;5.43;2.72;;;16.50;93.80;;;;;;5113346;28;20035;-67
2022/07/31 05:26:25;;;;;;;5.53;2.38;;;16.60;94.20;;;;;;5117148;28;20024;-67
2022/07/31 05:28:52;;;;;;;4.57;2.60;;;16.70;93.90;;;;;;5117479;28;20059;-67
2022/07/31 05:31:19;;;;;;;4.00;1.98;;;16.90;93.80;;;;;;5117019;28;20514;-67
2022/07/31 05:33:46;;;;;;;5.68;1.98;;;17.10;93.80;;;;;;5117396;28;20031;-67
2022/07/31 05:36:13;;;;;;;5.07;2.25;;;17.30;92.80;;;;;;5116181;28;20077;-66
2022/07/31 05:38:38;;;;;;;5.30;2.35;;;17.60;92.10;;;;;;5116186;28;20030;-67
2022/07/31 05:41:04;;;;;;;5.13;2.40;;;17.80;90.50;;;;;;5115234;28;20031;-67
2022/07/31 05:43:30;;;;;;;3.40;1.80;;;18.00;90.10;;;;;;5117956;28;20053;-67
2022/07/31 05:45:56;;;;;;;6.30;2.30;;;18.40;88.60;;;;;;5116807;28;20040;-67
2022/07/31 05:48:22;;;;;;;4.68;2.17;;;18.80;89.70;;;;;;5115238;28;20023;-67
2022/07/31 05:50:49;;;;;;;4.25;1.90;;;19.10;88.90;;;;;;5113575;28;20096;-67
2022/07/31 05:53:15;;;;;;;3.17;1.73;;;19.20;88.70;;;;;;5106560;28;20027;-67
2022/07/31 05:55:45;;;;;;;5.45;2.30;;;19.40;87.80;;;;;;5106089;28;20333;-67
2022/07/31 05:58:12;;;;;;;5.40;1.88;;;19.70;86.60;;;;;;5109495;28;20023;-68
2022/07/31 06:00:38;;;;;;;4.90;1.80;;;20.00;82.70;;;;;;5113083;28;20023;-67
2022/07/31 06:03:04;;;;;;;4.88;2.10;;;20.30;77.50;;;;;;5115342;28;20027;-68
2022/07/31 06:05:31;;;;;;;3.85;2.00;;;20.40;84.50;;;;;;5116031;28;20032;-66
2022/07/31 06:07:57;;;;;;;4.78;1.67;;;20.50;84.80;;;;;;5112608;27;20026;-67
2022/07/31 06:10:23;;;;;;;4.25;1.73;;;20.60;79.80;;;;;;5108981;28;20051;-67
2022/07/31 06:12:49;;;;;;;4.72;2.00;;;20.80;76.80;;;;;;5115485;28;20340;-67
2022/07/31 06:15:15;;;;;;;7.50;1.85;;;21.10;76.70;;;;;;5115699;28;20031;-67
2022/07/31 06:17:42;;;;;;;4.97;2.10;;;21.30;75.70;;;;;;5115125;28;20084;-67
2022/07/31 06:20:08;;;;;;;5.55;1.83;;;21.40;74.30;;;;;;5114490;28;20020;-67
2022/07/31 06:22:34;;;;;;;5.50;1.90;;;21.40;73.50;;;;;;5115013;28;20024;-67
2022/07/31 06:25:00;;;;;;;4.85;1.60;;;21.60;73.40;;;;;;5115060;28;20015;-68
2022/07/31 06:27:29;;;;;;;4.03;1.73;;;21.60;73.00;;;;;;5116435;28;20042;-67
2022/07/31 06:29:56;;;;;;;4.00;1.80;;;21.60;74.40;;;;;;5111804;28;20030;-67
2022/07/31 06:32:22;;;;;;;3.33;1.60;;;21.50;78.40;;;;;;5114800;28;20038;-67
2022/07/31 06:34:48;;;;;;;3.00;1.55;;;21.60;73.00;;;;;;5114562;28;20316;-67
2022/07/31 06:37:14;;;;;;;2.72;1.40;;;21.60;73.30;;;;;;5115474;28;20042;-67
2022/07/31 06:39:39;;;;;;;6.88;1.80;;;21.70;74.30;;;;;;5114056;28;20106;-67
2022/07/31 06:42:05;;;;;;;4.88;1.80;;;21.80;74.20;;;;;;5113749;28;20031;-67
2022/07/31 06:44:34;;;;;;;3.13;1.60;;;22.20;71.40;;;;;;5114907;28;20055;-67
2022/07/31 06:46:59;;;;;;;5.88;1.52;;;22.40;72.20;;;;;;5111481;28;20016;-66
2022/07/31 06:49:25;;;;;;;2.97;1.50;;;22.50;70.50;;;;;;5112946;28;20050;-67
2022/07/31 06:51:51;;;;;;;3.65;1.60;;;22.80;69.40;;;;;;5114707;28;20432;-67
2022/07/31 06:54:18;;;;;;;4.65;1.50;;;23.00;69.40;;;;;;5113122;28;20031;-67
2022/07/31 06:56:43;;;;;;;3.33;1.65;;;23.00;69.10;;;;;;5112062;28;20035;-68
2022/07/31 06:59:09;;;;;;;4.15;1.67;;;22.90;69.70;;;;;;5112024;28;20023;-67
2022/07/31 07:01:35;;;;;;;5.80;1.52;;;22.90;70.00;;;;;;5110049;28;20039;-68
2022/07/31 07:04:02;;;;;;;3.65;1.65;;;23.00;69.20;;;;;;5114848;28;20034;-67
2022/07/31 07:06:27;;;;;;;4.82;1.63;;;23.30;69.10;;;;;;5114154;28;20073;-67
2022/07/31 07:08:53;;;;;;;4.65;2.15;;;23.50;67.20;;;;;;5111754;28;20027;-67
2022/07/31 07:11:19;;;;;;;4.55;1.80;;;23.70;65.80;;;;;;5114505;28;20507;-67
2022/07/31 07:13:45;;;;;;;3.65;1.70;;;23.70;66.80;;;;;;5114304;28;20043;-66
2022/07/31 07:16:12;;;;;;;4.40;1.70;;;23.60;66.30;;;;;;5109676;28;20032;-67
2022/07/31 07:18:38;;;;;;;4.95;1.70;;;23.50;68.00;;;;;;5112525;28;20046;-66
2022/07/31 07:21:04;;;;;;;3.88;1.52;;;23.30;65.80;;;;;;5112533;28;20024;-67
2022/07/31 07:23:29;;;;;;;7.03;2.17;;;23.00;67.00;;;;;;5112634;28;20421;-66
2022/07/31 07:25:55;;;;;;;5.50;1.70;;;22.90;67.40;;;;;;5113095;28;20024;-67
2022/07/31 07:28:21;;;;;;;4.35;1.83;;;22.90;68.70;;;;;;5115050;28;20019;-66
2022/07/31 07:30:47;;;;;;;5.13;1.73;;;23.10;68.20;;;;;;5115401;28;20035;-66
2022/07/31 07:33:13;;;;;;;3.85;1.63;;;23.40;68.30;;;;;;5114761;28;20389;-67
2022/07/31 07:35:38;;;;;;;4.60;1.50;;;23.60;66.70;;;;;;5105856;28;20034;-67
2022/07/31 07:38:04;;;;;;;5.32;1.67;;;24.00;67.20;;;;;;5112345;28;20047;-67
2022/07/31 07:40:30;;;;;;;3.05;1.65;;;24.20;65.50;;;;;;5113610;28;20038;-67
2022/07/31 07:42:56;;;;;;;5.40;1.60;;;24.50;64.00;;;;;;5115505;28;20027;-67
2022/07/31 07:45:24;;;;;;;4.97;1.65;;;24.70;65.00;;;;;;5108969;28;20093;-67
2022/07/31 07:47:49;;;;;;;3.72;1.60;;;24.70;64.40;;;;;;5099627;28;20035;-67
2022/07/31 07:50:15;;;;;;;3.50;1.75;;;25.10;64.40;;;;;;5118770;28;20332;-67
2022/07/31 07:52:44;;;;;;;3.35;1.50;;;25.50;63.90;;;;;;5119368;28;20038;-66
2022/07/31 07:55:11;;;;;;;5.20;1.50;;;26.20;62.10;;;;;;5116783;28;20326;-66
2022/07/31 07:57:37;;;;;;;3.85;1.40;;;27.10;60.50;;;;;;5116547;28;20028;-66
2022/07/31 08:00:06;;;;;;;3.03;1.40;;;27.80;59.50;;;;;;5113223;28;20436;-66
2022/07/31 08:02:32;;;;;;;3.83;1.52;;;28.20;58.30;;;;;;5112634;28;20024;-66
2022/07/31 08:04:59;;;;;;;4.70;1.50;;;29.00;57.10;;;;;;5116710;28;20028;-66
2022/07/31 08:07:33;;;;;;;4.30;1.60;;;28.80;57.60;;;;;;5107461;28;21373;-66
2022/07/31 08:10:00;;;;;;;5.40;1.60;;;29.00;57.90;;;;;;5113485;28;20096;-67
2022/07/31 08:12:26;;;;;;;4.00;1.60;;;29.20;57.60;;;;;;5117816;28;20035;-66
2022/07/31 08:14:52;;;;;;;3.60;1.40;;;29.80;56.40;;;;;;5112700;28;20036;-66
2022/07/31 08:17:19;;;;;;;5.22;1.40;;;29.70;56.60;;;;;;5118380;28;20058;-67
2022/07/31 08:19:44;;;;;;;3.72;1.42;;;29.40;56.30;;;;;;5118339;28;20039;-68
2022/07/31 08:22:10;;;;;;;3.78;1.63;;;29.00;57.90;;;;;;5119272;28;20020;-67
2022/07/31 08:24:36;;;;;;;4.43;1.80;;;28.40;58.30;;;;;;5117675;28;20039;-67
2022/07/31 08:29:46;;;;;;;3.17;1.40;;;29.10;58.50;;;;;;5111386;28;20166;-67
2022/07/31 08:32:16;;;;;;;4.22;1.50;;;29.60;57.50;;;;;;5104223;28;20110;-66
2022/07/31 08:34:41;;;;;;;7.50;1.77;;;29.60;57.50;;;;;;5109121;28;20031;-67
2022/07/31 08:37:07;;;;;;;2.65;1.17;;;30.20;56.10;;;;;;5108026;28;20320;-67
2022/07/31 08:39:34;;;;;;;6.15;1.40;;;30.40;55.30;;;;;;5113320;28;20952;-67
2022/07/31 08:42:04;;;;;;;2.97;1.30;;;30.30;55.60;;;;;;5114482;28;20517;-68
2022/07/31 08:44:30;;;;;;;6.70;1.60;;;29.90;55.20;;;;;;5115196;28;20340;-67
2022/07/31 08:46:56;;;;;;;3.72;1.48;;;30.00;55.70;;;;;;5115611;28;20035;-67
2022/07/31 08:49:25;;;;;;;5.15;1.58;;;30.60;54.10;;;;;;5115972;28;20019;-66
2022/07/31 08:51:53;;;;;;;4.13;1.40;;;30.40;54.40;;;;;;5116800;28;20475;-67
2022/07/31 08:54:19;;;;;;;3.25;1.50;;;30.00;53.70;;;;;;5109430;28;20031;-66
2022/07/31 08:56:51;;;;;;;3.90;1.60;;;29.10;55.60;;;;;;5108576;28;20066;-67
2022/07/31 08:59:17;;;;;;;3.95;1.40;;;28.80;55.60;;;;;;5108342;28;20023;-67
2022/07/31 09:01:43;;;;;;;5.07;1.52;;;28.20;56.20;;;;;;5114487;28;20024;-67
2022/07/31 09:04:11;;;;;;;3.50;1.55;;;28.20;57.00;;;;;;5111841;28;20111;-67
2022/07/31 09:06:37;;;;;;;3.45;1.50;;;28.60;57.10;;;;;;5116070;28;20047;-67
2022/07/31 09:09:04;;;;;;;3.88;1.50;;;29.00;56.40;;;;;;5113189;28;20416;-68
2022/07/31 09:11:30;;;;;;;6.03;1.58;;;29.30;56.20;;;;;;5109484;28;20072;-65
2022/07/31 09:14:01;;;;;;;3.95;1.40;;;29.60;55.80;;;;;;5113394;27;20028;-68
2022/07/31 09:16:27;;;;;;;3.30;1.48;;;29.90;54.50;;;;;;5113242;28;20047;-68
2022/07/31 09:19:01;;;;;;;7.05;1.70;;;29.60;54.70;;;;;;5114666;28;20103;-67
2022/07/31 09:21:43;;;;;;;4.65;1.35;;;29.50;54.40;;;;;;5108603;28;20375;-67
2022/07/31 09:24:10;;;;;;;4.50;1.55;;;29.90;55.40;;;;;;5111292;28;20059;-67
2022/07/31 09:26:36;;;;;;;3.28;1.40;;;30.00;54.30;;;;;;5117095;28;20024;-67
2022/07/31 09:29:07;;;;;;;4.10;1.65;;;30.50;54.90;;;;;;5105057;28;20059;-67
2022/07/31 09:31:34;;;;;;;5.32;1.50;;;30.90;54.30;;;;;;5110379;28;20036;-67
2022/07/31 09:34:00;;;;;;;4.70;1.35;;;31.50;53.80;;;;;;5107855;28;20321;-67
2022/07/31 09:36:26;;;;;;;3.95;1.25;;;32.00;51.70;;;;;;5113352;28;20036;-67
2022/07/31 09:38:52;;;;;;;3.20;1.38;;;32.30;50.20;;;;;;5111497;28;20028;-67
2022/07/31 09:41:20;;;;;;;4.97;1.58;;;32.30;50.80;;;;;;5112079;28;20019;-67
2022/07/31 09:43:55;;;;;;;3.63;1.50;;;31.40;52.00;;;;;;5117607;28;20048;-68
2022/07/31 09:46:21;;;;;;;4.53;1.50;;;31.60;52.00;;;;;;5108730;28;20027;-67
2022/07/31 09:48:56;;;;;;;3.45;1.52;;;31.00;51.30;;;;;;5107889;28;20380;-66
2022/07/31 09:51:24;;;;;;;2.42;1.10;;;30.90;52.80;;;;;;5108829;28;20114;-66
2022/07/31 09:53:55;;;;;;;4.18;1.35;;;32.10;49.80;;;;;;5106913;28;20038;-67
2022/07/31 09:56:31;;;;;;;3.47;1.58;;;32.20;51.40;;;;;;5108126;28;20413;-67
2022/07/31 09:58:58;;;;;;;7.00;2.00;;;32.00;51.40;;;;;;5105865;28;20051;-67
2022/07/31 10:01:26;;;;;;;3.50;1.35;;;31.70;50.40;;;;;;5109237;28;20015;-67
2022/07/31 10:03:52;;;;;;;4.40;1.27;;;31.50;52.00;;;;;;5108528;28;20020;-67
2022/07/31 10:06:19;;;;;;;4.55;1.27;;;31.00;53.60;;;;;;5108516;28;20050;-67
2022/07/31 10:08:49;;;;;;;3.40;1.38;;;30.90;53.40;;;;;;5105309;28;20421;-67
2022/07/31 10:11:18;;;;;;;4.65;1.50;;;30.20;53.10;;;;;;5109290;28;20039;-67
2022/07/31 10:13:49;;;;;;;3.58;1.42;;;29.70;54.90;;;;;;5114863;28;20036;-67
2022/07/31 10:16:16;;;;;;;3.28;1.35;;;30.00;54.30;;;;;;5114459;28;20027;-68
2022/07/31 10:18:46;;;;;;;4.63;1.40;;;30.40;53.30;;;;;;5114891;28;20036;-67
2022/07/31 10:21:15;;;;;;;4.78;1.63;;;30.80;53.60;;;;;;5111256;28;20023;-67
2022/07/31 10:23:43;;;;;;;3.17;1.30;;;31.50;53.30;;;;;;5109811;28;20020;-67
2022/07/31 10:26:09;;;;;;;4.53;1.30;;;33.00;50.50;;;;;;5108998;28;20297;-67
2022/07/31 10:28:39;;;;;;;4.40;1.60;;;33.50;50.20;;;;;;5111354;28;20041;-68
2022/07/31 10:31:05;;;;;;;3.20;1.20;;;33.50;49.60;;;;;;5114352;28;20301;-68
2022/07/31 10:33:34;;;;;;;4.82;1.40;;;34.60;47.30;;;;;;5112150;28;20028;-66
2022/07/31 10:36:07;;;;;;;3.53;1.50;;;35.20;47.30;;;;;;5110662;28;20054;-67
2022/07/31 10:38:49;;;;;;;4.00;1.20;;;34.90;48.80;;;;;;5112518;28;20023;-66
2022/07/31 10:42:05;;;;;;;3.42;1.50;;;34.70;48.80;;;;;;5114151;28;20027;-67
2022/07/31 10:44:34;;;;;;;4.25;1.60;;;32.70;49.80;;;;;;5086758;28;20102;-66
2022/07/31 10:47:12;;;;;;;3.70;1.42;;;31.90;50.90;;;;;;5089320;28;20036;-66
2022/07/31 10:49:39;;;;;;;3.53;1.60;;;31.90;51.40;;;;;;5099897;28;20071;-65
2022/07/31 10:52:05;;;;;;;3.13;1.40;;;31.40;51.60;;;;;;5103449;28;20026;-65
2022/07/31 10:54:45;;;;;;;11.35;1.60;;;30.60;52.70;;;;;;5106410;28;20024;-65
2022/07/31 10:57:25;;;;;;;6.30;1.70;;;30.40;52.40;;;;;;5111338;28;20050;-66
2022/07/31 10:59:51;;;;;;;3.90;1.58;;;31.00;51.20;;;;;;5107072;28;20439;-66
2022/07/31 11:02:34;;;;;;;4.63;1.42;;;31.20;52.40;;;;;;5115682;28;20027;-67
2022/07/31 11:05:07;;;;;;;3.42;1.52;;;32.10;51.40;;;;;;5111126;28;20097;-66
2022/07/31 11:07:33;;;;;;;3.95;1.45;;;33.40;50.10;;;;;;5112516;28;20111;-67
2022/07/31 11:10:32;;;;;;;3.47;1.23;;;33.00;48.60;;;;;;5113042;28;20984;-66
2022/07/31 11:13:06;;;;;;;4.55;1.50;;;32.40;49.50;;;;;;5105459;28;20035;-67
2022/07/31 11:15:33;;;;;;;3.92;1.33;;;32.90;50.70;;;;;;5115332;28;20028;-68
2022/07/31 11:18:09;;;;;;;3.67;1.20;;;32.90;51.00;;;;;;5105116;28;20047;-67
2022/07/31 11:20:35;;;;;;;3.05;1.30;;;32.60;49.70;;;;;;5108459;28;20056;-67
2022/07/31 11:23:05;;;;;;;3.47;1.40;;;32.20;51.80;;;;;;5111228;28;20310;-67
2022/07/31 11:25:33;;;;;;;3.88;1.35;;;31.90;49.90;;;;;;5099275;28;20420;-67
2022/07/31 11:28:28;;;;;;;4.60;1.30;;;31.00;51.50;;;;;;5113839;28;20024;-67
2022/07/31 11:30:57;;;;;;;3.78;1.40;;;30.80;52.90;;;;;;5098147;28;20473;-68
2022/07/31 11:33:36;;;;;;;4.80;1.45;;;30.50;52.60;;;;;;5113484;28;20345;-66
2022/07/31 11:36:16;;;;;;;2.45;1.45;;;30.40;52.70;;;;;;5113427;28;20023;-67
2022/07/31 11:38:45;;;;;;;5.22;1.30;;;30.10;53.40;;;;;;5112816;28;20020;-67
2022/07/31 11:41:11;;;;;;;3.08;1.33;;;30.20;53.90;;;;;;5108304;28;20026;-67
2022/07/31 11:43:41;;;;;;;7.82;2.15;;;30.60;52.80;;;;;;5114981;28;20024;-67
2022/07/31 11:46:07;;;;;;;6.05;1.73;;;30.10;53.90;;;;;;5114077;28;20026;-67
2022/07/31 11:48:36;;;;;;;3.50;1.40;;;29.80;54.10;;;;;;5112193;28;20042;-67
2022/07/31 11:51:02;;;;;;;4.20;1.88;;;30.30;53.50;;;;;;5114116;28;20023;-66
2022/07/31 11:53:28;;;;;;;4.55;1.50;;;31.00;51.60;;;;;;5101766;28;20024;-67
2022/07/31 11:55:58;;;;;;;5.35;1.70;;;30.90;52.00;;;;;;5113626;28;20022;-66
2022/07/31 11:58:26;;;;;;;5.78;1.50;;;31.10;51.90;;;;;;5115489;28;20015;-66
2022/07/31 12:01:03;;;;;;;7.50;2.15;;;31.00;52.20;;;;;;5112651;28;20327;-67
2022/07/31 12:03:38;;;;;;;3.17;1.50;;;31.50;51.20;;;;;;5111383;28;20144;-67
2022/07/31 12:06:09;;;;;;;5.38;1.40;;;31.10;50.30;;;;;;5114629;28;20043;-68
2022/07/31 12:08:35;;;;;;;4.10;1.60;;;30.50;51.90;;;;;;5112649;28;20020;-67
2022/07/31 12:11:03;;;;;;;3.85;1.80;;;30.10;52.30;;;;;;5111099;28;20016;-68
2022/07/31 12:13:30;;;;;;;6.38;1.95;;;30.10;53.10;;;;;;5114634;28;20436;-67
2022/07/31 12:15:56;;;;;;;2.67;1.50;;;30.30;53.10;;;;;;5114020;28;20035;-67
2022/07/31 12:18:22;;;;;;;6.70;1.60;;;30.30;52.70;;;;;;5113711;28;20326;-67
2022/07/31 12:21:02;;;;;;;3.40;1.48;;;30.60;53.70;;;;;;5111580;28;20024;-67
2022/07/31 12:23:49;;;;;;;5.03;1.77;;;31.00;52.20;;;;;;5111635;28;20031;-67
2022/07/31 12:26:22;;;;;;;3.72;1.60;;;30.90;52.10;;;;;;5111147;28;20016;-67
2022/07/31 12:29:08;;;;;;;4.80;1.50;;;30.80;51.50;;;;;;5108765;28;20031;-67
2022/07/31 12:31:43;;;;;;;3.50;1.40;;;30.40;52.50;;;;;;5113824;28;20034;-67
2022/07/31 12:34:09;;;;;;;4.68;1.70;;;30.10;52.10;;;;;;5112782;28;20102;-67
2022/07/31 12:36:34;;;;;;;4.95;1.50;;;30.10;52.60;;;;;;5112473;27;20103;-67
2022/07/31 12:39:03;;;;;;;4.35;1.70;;;30.40;53.30;;;;;;5111175;28;20020;-66
2022/07/31 12:41:30;;;;;;;6.43;1.70;;;30.20;53.20;;;;;;5106377;28;20051;-66
2022/07/31 12:44:13;;;;;;;3.42;1.40;;;30.50;52.90;;;;;;5114797;28;20019;-66
2022/07/31 12:46:39;;;;;;;5.72;1.63;;;30.50;52.20;;;;;;5115125;27;20050;-66
2022/07/31 12:49:07;;;;;;;4.05;1.60;;;30.60;51.80;;;;;;5117755;28;20425;-67
2022/07/31 12:51:33;;;;;;;3.38;1.45;;;31.20;52.30;;;;;;5113790;28;20031;-66
2022/07/31 12:54:08;;;;;;;5.30;1.40;;;30.80;51.60;;;;;;5116942;28;20027;-66
2022/07/31 12:56:36;;;;;;;4.50;1.42;;;30.20;53.40;;;;;;5114305;28;20024;-67
2022/07/31 12:59:02;;;;;;;4.05;1.60;;;29.70;53.00;;;;;;5113804;28;20019;-68